Terminal Aerodrome Forecast
Issued by NWS Louisville, KY

Home | Current Version | Previous Version | Text Only | Print | Product List | Glossary On
Versions: 1 2 3 4 5 6 7 8 9 10 11 12 13 14 15 16
000
FTUS43 KLMK 242320
TAFLEX
TAF
KLEX 242320Z 2500/2524 20012KT P6SM SHRA BKN018
     FM250200 23014KT P6SM VCSH SCT008 BKN012
     FM250400 23013KT P6SM OVC008
     FM251400 26011G20KT 4SM -SHRA BR OVC007
     FM251700 26015G22KT 4SM -SHRA BKN015=

USA.gov is the U.S. government's official web portal to all federal, state and local government web resources and services.